Time;durP1;ratioP1;P1;durP2;ratioP2;P2;SDS_P1;SDS_P2;PMS_P1;PMS_P2;Temp;Humidity;BMP_temperature;BMP_pressure;BME280_temperature;BME280_humidity;BME280_pressure;Samples;Min_cycle;Max_cycle;Signal;HPM_P1;HPM_P2
2022/06/16 00:00:14;;;;;;;6.32;2.65;;;14.90;99.90;;;;;;5073553;28;20047;-75
2022/06/16 00:02:45;;;;;;;6.10;3.45;;;14.90;99.90;;;;;;5072389;28;20548;-75
2022/06/16 00:05:13;;;;;;;2.67;1.88;;;14.90;99.90;;;;;;5073994;28;20040;-75
2022/06/16 00:07:40;;;;;;;4.30;2.33;;;14.90;99.90;;;;;;5073887;28;20409;-75
2022/06/16 00:10:08;;;;;;;8.85;2.90;;;14.80;99.90;;;;;;5072034;28;20561;-75
2022/06/16 00:12:34;;;;;;;5.90;2.85;;;14.80;99.90;;;;;;5072324;28;20045;-75
2022/06/16 00:15:00;;;;;;;4.38;2.45;;;14.80;99.90;;;;;;5072320;28;20093;-75
2022/06/16 00:17:26;;;;;;;6.97;3.05;;;14.80;99.90;;;;;;5073560;28;20048;-75
2022/06/16 00:19:51;;;;;;;5.05;2.90;;;14.80;99.90;;;;;;5072118;28;20044;-75
2022/06/16 00:22:17;;;;;;;7.47;2.65;;;14.70;99.90;;;;;;5071918;28;20125;-75
2022/06/16 00:24:42;;;;;;;7.13;2.88;;;14.80;99.90;;;;;;5055380;28;20041;-75
2022/06/16 00:27:08;;;;;;;4.30;2.85;;;14.80;99.90;;;;;;5071969;28;20387;-75
2022/06/16 00:29:34;;;;;;;6.68;3.03;;;14.80;99.90;;;;;;5072026;28;20046;-75
2022/06/16 00:32:00;;;;;;;6.72;2.85;;;14.70;99.90;;;;;;5071632;28;20128;-75
2022/06/16 00:34:26;;;;;;;6.40;3.33;;;14.70;99.90;;;;;;5071879;28;20131;-75
2022/06/16 00:36:52;;;;;;;6.38;3.30;;;14.70;99.90;;;;;;5071821;28;20044;-75
2022/06/16 00:39:18;;;;;;;6.68;3.25;;;14.70;99.90;;;;;;5072061;28;20083;-75
2022/06/16 00:41:44;;;;;;;5.57;2.67;;;14.70;99.90;;;;;;5072554;28;20044;-75
2022/06/16 00:44:30;;;;;;;4.68;3.00;;;14.70;99.90;;;;;;5071677;28;20086;-75
2022/06/16 00:46:56;;;;;;;7.20;3.45;;;14.70;99.90;;;;;;5071966;28;20051;-75
2022/06/16 00:49:22;;;;;;;8.13;3.40;;;14.60;99.90;;;;;;5071602;28;20032;-75
2022/06/16 00:51:51;;;;;;;7.13;3.13;;;14.60;99.90;;;;;;5071206;28;20115;-75
2022/06/16 00:54:23;;;;;;;5.97;3.22;;;14.60;99.90;;;;;;5071851;28;20071;-75
2022/06/16 00:56:51;;;;;;;9.00;3.63;;;14.50;99.90;;;;;;5072757;28;20040;-75
2022/06/16 00:59:18;;;;;;;11.07;3.90;;;14.50;99.90;;;;;;5071695;28;20044;-75
2022/06/16 01:01:44;;;;;;;7.78;3.90;;;14.50;99.90;;;;;;5071085;28;20155;-75
2022/06/16 01:06:57;;;;;;;8.25;4.15;;;14.50;99.90;;;;;;5072781;28;20040;-75
2022/06/16 01:09:27;;;;;;;6.70;4.63;;;14.50;99.90;;;;;;5077614;28;20044;-75
2022/06/16 01:15:23;;;;;;;9.32;3.53;;;14.40;99.90;;;;;;5083893;28;20048;-75
2022/06/16 01:18:19;;;;;;;9.48;3.53;;;14.40;99.90;;;;;;5091303;28;20436;-75
2022/06/16 01:20:48;;;;;;;10.70;3.22;;;14.40;99.90;;;;;;5091249;28;20477;-75
2022/06/16 01:23:46;;;;;;;6.97;3.75;;;14.40;99.90;;;;;;5092286;28;20393;-75
2022/06/16 01:26:42;;;;;;;8.95;3.83;;;14.40;99.90;;;;;;5091211;28;20036;-75
2022/06/16 01:29:17;;;;;;;9.27;4.82;;;14.30;99.90;;;;;;5091199;28;20122;-75
2022/06/16 01:32:03;;;;;;;12.38;5.13;;;14.30;99.90;;;;;;5090954;28;20043;-75
2022/06/16 01:34:47;;;;;;;10.30;5.15;;;14.30;99.90;;;;;;5091100;28;20043;-75
2022/06/16 01:37:35;;;;;;;12.23;4.60;;;14.30;99.90;;;;;;5090991;28;20516;-75
2022/06/16 01:40:09;;;;;;;6.32;3.70;;;14.30;99.90;;;;;;5090670;28;20075;-75
2022/06/16 01:42:43;;;;;;;7.75;4.10;;;14.30;99.90;;;;;;5090917;28;20043;-75
2022/06/16 01:45:21;;;;;;;9.90;4.65;;;14.30;99.90;;;;;;5090954;28;20044;-75
2022/06/16 01:47:50;;;;;;;8.38;4.25;;;14.30;99.90;;;;;;5090860;28;20575;-75
2022/06/16 01:50:22;;;;;;;11.20;4.75;;;14.20;99.90;;;;;;5090510;28;20040;-75
2022/06/16 01:52:57;;;;;;;10.43;4.80;;;14.20;99.90;;;;;;5073933;28;20036;-75
2022/06/16 01:55:35;;;;;;;10.38;5.28;;;14.20;99.90;;;;;;5090841;28;20282;-75
2022/06/16 01:58:10;;;;;;;10.25;4.75;;;14.20;99.90;;;;;;5090734;28;20118;-75
2022/06/16 02:00:36;;;;;;;6.68;3.83;;;14.20;99.90;;;;;;5090447;28;20040;-75
2022/06/16 02:03:06;;;;;;;6.45;4.40;;;14.30;99.90;;;;;;5090457;28;20049;-75
2022/06/16 02:05:42;;;;;;;9.18;4.82;;;14.30;99.90;;;;;;5090482;28;20423;-75
2022/06/16 02:08:15;;;;;;;10.38;4.88;;;14.30;99.90;;;;;;5090657;28;20157;-75
2022/06/16 02:10:53;;;;;;;12.45;5.20;;;14.20;99.90;;;;;;5073540;28;20119;-75
2022/06/16 02:13:24;;;;;;;10.05;4.97;;;14.20;99.90;;;;;;5090490;28;20059;-75
2022/06/16 02:16:28;;;;;;;10.50;4.57;;;14.20;99.90;;;;;;5090586;28;20128;-75
2022/06/16 02:18:55;;;;;;;;;;;14.30;99.90;;;;;;5085938;28;20054;-75
2022/06/16 02:21:33;;;;;;;6.88;4.45;;;14.20;99.90;;;;;;5073311;28;19916;-75
2022/06/16 02:24:00;;;;;;;8.40;4.55;;;14.20;99.90;;;;;;5090490;28;20119;-75
2022/06/16 02:26:26;;;;;;;8.05;4.55;;;14.30;99.90;;;;;;5091716;28;20085;-75
2022/06/16 02:28:56;;;;;;;9.05;4.70;;;14.20;99.90;;;;;;5090446;28;20047;-75
2022/06/16 02:31:39;;;;;;;9.57;4.53;;;14.30;99.90;;;;;;5090334;28;20044;-75
2022/06/16 02:34:16;;;;;;;7.70;3.72;;;14.30;99.90;;;;;;5090355;28;20051;-75
2022/06/16 02:36:59;;;;;;;11.50;4.28;;;14.30;99.90;;;;;;5090401;28;20044;-75
2022/06/16 02:39:37;;;;;;;;;;;14.20;99.90;;;;;;5090823;28;20040;-75
2022/06/16 02:42:22;;;;;;;8.90;4.60;;;14.20;99.90;;;;;;5090047;28;19915;-75
2022/06/16 02:45:13;;;;;;;9.20;4.75;;;14.10;99.90;;;;;;5090296;28;20068;-75
2022/06/16 02:48:03;;;;;;;7.82;4.32;;;14.10;99.90;;;;;;5090288;28;20048;-75
2022/06/16 02:51:00;;;;;;;9.85;5.68;;;14.20;99.90;;;;;;5089861;28;20559;-75
2022/06/16 02:54:09;;;;;;;15.55;6.43;;;14.10;99.90;;;;;;5090181;28;20105;-75
2022/06/16 02:56:33;;;;;;;10.85;5.68;;;14.20;99.90;;;;;;5087035;28;20118;-75
2022/06/16 02:59:05;;;;;;;7.72;5.22;;;14.10;99.90;;;;;;5090070;28;20119;-75
2022/06/16 03:01:33;;;;;;;9.75;5.43;;;14.10;99.90;;;;;;5091260;28;20036;-75
2022/06/16 03:04:14;;;;;;;13.05;7.07;;;14.10;99.90;;;;;;5090098;28;20111;-75
2022/06/16 03:06:40;;;;;;;10.18;4.88;;;14.10;99.90;;;;;;5090042;28;20117;-75
2022/06/16 03:09:07;;;;;;;8.98;5.13;;;14.00;99.90;;;;;;5091396;28;20106;-75
2022/06/16 03:11:34;;;;;;;10.70;4.20;;;13.90;99.90;;;;;;5072787;28;20084;-75
2022/06/16 03:14:00;;;;;;;7.95;4.22;;;13.90;99.90;;;;;;5089957;28;20052;-75
2022/06/16 03:16:26;;;;;;;6.47;4.13;;;13.80;99.90;;;;;;5073191;28;20040;-75
2022/06/16 03:18:51;;;;;;;11.82;5.00;;;13.80;99.90;;;;;;5093164;28;20401;-75
2022/06/16 03:21:17;;;;;;;7.47;4.95;;;13.70;99.90;;;;;;5093399;28;20032;-75
2022/06/16 03:23:43;;;;;;;8.18;5.55;;;13.80;99.90;;;;;;5093770;28;20516;-75
2022/06/16 03:26:09;;;;;;;7.10;4.50;;;13.70;99.90;;;;;;5093417;28;20047;-75
2022/06/16 03:28:35;;;;;;;7.30;4.20;;;13.80;99.90;;;;;;5076575;28;20109;-75
2022/06/16 03:31:00;;;;;;;9.10;4.35;;;13.80;99.90;;;;;;5093435;28;20036;-75
2022/06/16 03:33:26;;;;;;;5.93;3.83;;;13.80;99.90;;;;;;5093542;28;20497;-75
2022/06/16 03:35:51;;;;;;;8.65;4.93;;;13.80;99.90;;;;;;5093436;28;20553;-75
2022/06/16 03:40:46;;;;;;;9.43;4.43;;;13.80;99.90;;;;;;5093085;28;20048;-75
2022/06/16 03:43:11;;;;;;;8.23;5.13;;;13.70;99.90;;;;;;5093108;28;20059;-75
2022/06/16 03:45:37;;;;;;;8.32;4.20;;;13.70;99.90;;;;;;5093132;28;20401;-75
2022/06/16 03:48:04;;;;;;;10.05;4.97;;;13.70;99.90;;;;;;5093124;28;20048;-75
2022/06/16 03:50:30;;;;;;;8.88;4.80;;;13.70;99.90;;;;;;5092729;28;20040;-76
2022/06/16 03:52:56;;;;;;;9.13;4.93;;;13.70;99.90;;;;;;5092928;28;20047;-75
2022/06/16 03:55:22;;;;;;;8.05;4.93;;;13.70;99.90;;;;;;5093180;28;20047;-75
2022/06/16 03:57:49;;;;;;;9.43;4.88;;;13.80;99.90;;;;;;5092925;28;20079;-74
2022/06/16 04:00:15;;;;;;;8.38;5.18;;;13.80;99.90;;;;;;5092578;28;20117;-73
2022/06/16 04:02:40;;;;;;;10.13;5.70;;;13.90;99.90;;;;;;5092692;28;20032;-73
2022/06/16 04:05:08;;;;;;;8.35;4.78;;;13.80;99.90;;;;;;5092661;28;20044;-73
2022/06/16 04:07:37;;;;;;;6.35;4.70;;;13.90;99.90;;;;;;5092746;28;20048;-73
2022/06/16 04:10:04;;;;;;;6.82;4.20;;;13.90;99.90;;;;;;5092327;28;20040;-74
2022/06/16 04:12:30;;;;;;;7.80;4.90;;;13.90;99.90;;;;;;5075685;28;20040;-73
2022/06/16 04:14:55;;;;;;;7.22;4.75;;;13.80;99.90;;;;;;5092433;28;20048;-73
2022/06/16 04:17:21;;;;;;;6.70;4.25;;;13.90;99.90;;;;;;5092418;28;20036;-74
2022/06/16 04:22:31;;;;;;;8.50;4.43;;;13.90;99.90;;;;;;5092154;28;20497;-73
2022/06/16 04:24:56;;;;;;;8.52;4.63;;;14.00;99.90;;;;;;5075391;28;20032;-74
2022/06/16 04:27:22;;;;;;;9.82;4.40;;;14.00;99.90;;;;;;5075284;28;20040;-74
2022/06/16 04:29:48;;;;;;;6.80;4.07;;;14.10;99.90;;;;;;5092092;28;20065;-74
2022/06/16 04:32:13;;;;;;;11.77;4.90;;;14.10;99.90;;;;;;5091813;28;20040;-74
2022/06/16 04:34:40;;;;;;;7.07;5.03;;;14.20;99.90;;;;;;5092043;28;20044;-74
2022/06/16 04:37:06;;;;;;;9.73;5.43;;;14.30;99.90;;;;;;5091890;28;20532;-74
2022/06/16 04:39:32;;;;;;;5.90;4.63;;;14.30;99.90;;;;;;5092285;28;20044;-74
2022/06/16 04:41:58;;;;;;;10.15;4.82;;;14.40;99.90;;;;;;5062590;28;20066;-74
2022/06/16 04:44:24;;;;;;;8.93;5.32;;;14.40;99.90;;;;;;5071826;28;20040;-73
2022/06/16 04:46:49;;;;;;;8.07;4.60;;;14.40;99.90;;;;;;5071629;28;20074;-73
2022/06/16 04:49:15;;;;;;;11.38;6.22;;;14.60;99.90;;;;;;5071516;28;20032;-74
2022/06/16 04:51:41;;;;;;;13.45;7.85;;;14.70;99.90;;;;;;5071192;28;20669;-73
2022/06/16 04:54:07;;;;;;;9.20;5.70;;;14.80;99.90;;;;;;5071489;28;20045;-73
2022/06/16 04:56:32;;;;;;;10.15;5.65;;;14.80;99.90;;;;;;5071543;28;20136;-73
2022/06/16 04:58:58;;;;;;;10.52;5.53;;;14.90;99.90;;;;;;5071298;28;20036;-73
2022/06/16 05:01:23;;;;;;;9.52;5.30;;;15.20;99.90;;;;;;5071311;28;20041;-73
2022/06/16 05:03:50;;;;;;;6.18;4.50;;;15.40;99.90;;;;;;5072504;28;20454;-73
2022/06/16 05:06:16;;;;;;;7.95;4.03;;;15.70;99.90;;;;;;5071194;28;20410;-73
2022/06/16 05:08:42;;;;;;;8.23;4.07;;;15.90;99.90;;;;;;5071638;28;20037;-73
2022/06/16 05:11:07;;;;;;;4.75;3.78;;;16.00;99.90;;;;;;5054574;28;20047;-73
2022/06/16 05:13:33;;;;;;;4.60;3.22;;;16.30;99.90;;;;;;5071296;28;20036;-74
2022/06/16 05:15:58;;;;;;;5.25;3.42;;;16.70;99.90;;;;;;5073187;28;20040;-74
2022/06/16 05:18:24;;;;;;;7.35;3.63;;;17.10;99.90;;;;;;5071134;28;20041;-73
2022/06/16 05:20:50;;;;;;;5.90;3.08;;;17.50;99.90;;;;;;5070822;28;20044;-73
2022/06/16 05:23:15;;;;;;;5.45;2.88;;;17.90;99.90;;;;;;5071203;28;20043;-74
2022/06/16 05:25:41;;;;;;;8.60;4.00;;;18.40;99.90;;;;;;5071210;28;20032;-74
2022/06/16 05:28:07;;;;;;;12.70;5.45;;;18.40;99.90;;;;;;5072254;28;20040;-74
2022/06/16 05:30:33;;;;;;;9.75;4.32;;;18.50;99.90;;;;;;5071911;28;20088;-73
2022/06/16 05:32:59;;;;;;;7.85;4.55;;;18.60;99.90;;;;;;5071073;28;20040;-73
2022/06/16 05:35:25;;;;;;;7.85;3.38;;;18.70;99.90;;;;;;5071027;28;20040;-74
2022/06/16 05:37:51;;;;;;;9.20;3.25;;;18.70;99.90;;;;;;5054046;28;20064;-73
2022/06/16 05:40:16;;;;;;;7.20;3.20;;;18.80;99.90;;;;;;5069995;28;20114;-74
2022/06/16 05:42:42;;;;;;;5.38;2.67;;;19.00;99.90;;;;;;5072053;28;20039;-73
2022/06/16 05:45:10;;;;;;;4.88;2.58;;;19.00;99.90;;;;;;5070928;28;20036;-73
2022/06/16 05:47:37;;;;;;;5.13;2.58;;;19.40;99.90;;;;;;5070397;28;20041;-73
2022/06/16 05:50:03;;;;;;;5.05;2.53;;;19.40;99.60;;;;;;5070223;28;20048;-73
2022/06/16 05:52:29;;;;;;;4.43;1.92;;;19.70;99.50;;;;;;5070703;28;20516;-73
2022/06/16 05:54:55;;;;;;;8.57;2.03;;;19.80;98.30;;;;;;5070614;28;20041;-73
2022/06/16 05:57:21;;;;;;;5.82;1.65;;;19.50;97.70;;;;;;5054040;28;20051;-74
2022/06/16 05:59:46;;;;;;;4.40;1.58;;;19.40;97.40;;;;;;5070805;28;20679;-74
2022/06/16 06:02:19;;;;;;;4.13;2.00;;;19.40;97.40;;;;;;5070033;28;20567;-73
2022/06/16 06:04:47;;;;;;;5.30;1.63;;;19.70;97.50;;;;;;5070775;28;20528;-73
2022/06/16 06:07:12;;;;;;;4.78;1.55;;;19.90;97.00;;;;;;5070479;28;20072;-73
2022/06/16 06:17:44;;;;;;;4.70;1.48;;;20.30;94.70;;;;;;5070269;28;20048;-73
2022/06/16 06:20:11;;;;;;;3.88;1.40;;;20.50;94.00;;;;;;5053258;28;20033;-73
2022/06/16 06:22:36;;;;;;;3.03;1.60;;;20.40;94.00;;;;;;5071565;28;20075;-73
2022/06/16 06:25:02;;;;;;;4.85;2.10;;;20.70;94.30;;;;;;5070511;28;20076;-73
2022/06/16 06:27:54;;;;;;;2.28;1.23;;;21.10;94.80;;;;;;5075045;28;20029;-73
2022/06/16 06:30:29;;;;;;;5.43;1.90;;;21.30;92.80;;;;;;5079457;28;20093;-73
2022/06/16 06:32:56;;;;;;;2.70;1.00;;;21.30;92.80;;;;;;5090277;28;20062;-72
2022/06/16 06:35:22;;;;;;;3.85;1.70;;;21.30;92.80;;;;;;5090367;28;20044;-73
2022/06/16 06:37:49;;;;;;;3.90;1.23;;;21.60;92.70;;;;;;5090031;28;20071;-73
2022/06/16 06:40:26;;;;;;;3.10;1.40;;;21.80;92.10;;;;;;5089788;28;20044;-73
2022/06/16 06:42:51;;;;;;;5.63;1.48;;;22.10;91.80;;;;;;5090077;28;20036;-73
2022/06/16 06:45:17;;;;;;;5.13;1.98;;;22.10;90.90;;;;;;5090444;28;20039;-73
2022/06/16 06:47:44;;;;;;;4.18;1.63;;;22.10;90.00;;;;;;5090409;28;20040;-73
2022/06/16 06:50:20;;;;;;;3.10;1.30;;;22.00;87.10;;;;;;5073120;28;20043;-73
2022/06/16 06:52:45;;;;;;;3.95;1.58;;;22.00;86.10;;;;;;5091943;28;20036;-75
2022/06/16 06:55:11;;;;;;;4.25;1.40;;;22.10;87.30;;;;;;5094043;28;20039;-73
2022/06/16 06:57:37;;;;;;;2.95;1.15;;;22.10;85.00;;;;;;5093937;28;20048;-73
2022/06/16 07:00:04;;;;;;;4.57;2.13;;;22.10;81.50;;;;;;5093701;28;20043;-73
2022/06/16 07:02:29;;;;;;;3.70;1.83;;;22.10;81.00;;;;;;5086049;28;20111;-73
2022/06/16 07:04:55;;;;;;;5.05;1.55;;;22.20;81.90;;;;;;5074898;28;20115;-74
2022/06/16 07:07:24;;;;;;;4.55;1.60;;;22.10;79.70;;;;;;5073839;28;20083;-75
2022/06/16 07:09:50;;;;;;;4.93;1.67;;;22.20;79.40;;;;;;5074255;28;20441;-74
2022/06/16 07:12:17;;;;;;;3.97;1.80;;;22.20;79.40;;;;;;5074716;28;20071;-74
2022/06/16 07:14:44;;;;;;;4.00;1.40;;;22.50;80.10;;;;;;5073445;28;20048;-74
2022/06/16 07:17:10;;;;;;;4.72;1.10;;;22.70;81.40;;;;;;5073670;28;20098;-74
2022/06/16 07:19:36;;;;;;;3.83;0.82;;;22.80;79.70;;;;;;5074576;28;20040;-76
2022/06/16 07:22:06;;;;;;;2.85;0.90;;;23.10;77.00;;;;;;5072958;28;20041;-74
2022/06/16 07:24:33;;;;;;;5.00;2.10;;;23.20;75.50;;;;;;5073329;28;20037;-76
2022/06/16 07:27:00;;;;;;;1.77;0.98;;;23.50;75.80;;;;;;5074708;28;20040;-75
2022/06/16 07:29:25;;;;;;;5.20;1.13;;;23.50;74.90;;;;;;5073183;28;20124;-76
2022/06/16 07:31:52;;;;;;;3.65;1.40;;;23.50;74.90;;;;;;5074155;28;20123;-75
2022/06/16 07:34:17;;;;;;;2.92;1.15;;;23.60;74.60;;;;;;5073396;28;20148;-75
2022/06/16 07:36:43;;;;;;;4.40;1.35;;;23.50;74.00;;;;;;5073168;28;20564;-74
2022/06/16 07:39:09;;;;;;;3.10;1.20;;;23.60;71.30;;;;;;5074191;28;20502;-74
2022/06/16 07:41:35;;;;;;;3.38;1.13;;;23.60;68.30;;;;;;5072698;28;20041;-75
2022/06/16 07:44:12;;;;;;;3.92;1.02;;;23.70;70.40;;;;;;5074274;28;20039;-75
2022/06/16 07:46:39;;;;;;;2.60;1.00;;;23.60;68.20;;;;;;5072872;28;20125;-75
2022/06/16 07:49:13;;;;;;;2.38;0.98;;;23.80;69.80;;;;;;5074378;28;20044;-75
2022/06/16 07:51:42;;;;;;;5.05;1.20;;;23.60;70.40;;;;;;5073892;28;20056;-75
2022/06/16 07:54:10;;;;;;;4.68;1.08;;;23.90;69.30;;;;;;5056509;28;20040;-75
2022/06/16 07:56:36;;;;;;;5.63;1.02;;;23.90;68.70;;;;;;5072636;28;20494;-75
2022/06/16 07:59:02;;;;;;;3.70;1.13;;;24.10;66.30;;;;;;5060725;28;20059;-74
2022/06/16 08:01:28;;;;;;;3.67;1.35;;;23.70;65.40;;;;;;5081434;28;20040;-75
2022/06/16 08:03:54;;;;;;;4.93;1.42;;;23.90;64.70;;;;;;5085663;28;20040;-75
2022/06/16 08:06:26;;;;;;;2.45;1.38;;;23.80;63.70;;;;;;5085447;28;20029;-75
2022/06/16 08:08:56;;;;;;;3.10;1.10;;;24.00;63.90;;;;;;5093526;28;20119;-75
2022/06/16 08:14:06;;;;;;;2.10;1.20;;;24.00;64.80;;;;;;5092540;28;20043;-75
2022/06/16 08:16:33;;;;;;;2.60;1.58;;;23.90;64.10;;;;;;5092489;28;20036;-75
2022/06/16 08:19:00;;;;;;;3.60;2.08;;;24.00;63.90;;;;;;5092406;28;20040;-75
2022/06/16 08:21:25;;;;;;;7.45;1.60;;;23.80;61.40;;;;;;5093473;28;20079;-76
2022/06/16 08:23:51;;;;;;;2.75;1.23;;;24.10;63.90;;;;;;5092331;28;20064;-76
2022/06/16 08:26:17;;;;;;;4.80;1.75;;;24.30;63.30;;;;;;5092285;28;20466;-76
2022/06/16 08:28:43;;;;;;;4.70;1.63;;;24.10;62.30;;;;;;5092563;28;20047;-75
2022/06/16 08:31:09;;;;;;;3.03;1.15;;;24.10;61.10;;;;;;5092009;28;20490;-76
2022/06/16 08:33:35;;;;;;;3.90;1.85;;;24.30;62.50;;;;;;5075563;28;20047;-76
2022/06/16 08:36:01;;;;;;;3.10;1.60;;;24.30;63.00;;;;;;5092209;28;20036;-76
2022/06/16 08:38:27;;;;;;;5.25;1.55;;;24.30;62.30;;;;;;5093323;28;20097;-76
2022/06/16 08:41:11;;;;;;;3.00;1.58;;;24.60;64.00;;;;;;5091709;28;20085;-76
2022/06/16 08:43:44;;;;;;;5.53;1.75;;;24.40;61.80;;;;;;5093232;28;20576;-75
2022/06/16 08:46:14;;;;;;;6.85;1.58;;;24.70;61.70;;;;;;5093296;28;20443;-76
2022/06/16 08:49:05;;;;;;;5.30;1.70;;;24.90;60.90;;;;;;5091929;28;20051;-75
2022/06/16 08:52:05;;;;;;;3.58;1.70;;;24.80;58.90;;;;;;5091553;28;20051;-76
2022/06/16 08:54:51;;;;;;;3.35;1.40;;;24.90;58.80;;;;;;5091921;28;20651;-74
2022/06/16 08:58:05;;;;;;;2.28;1.45;;;25.10;60.90;;;;;;5091682;28;20509;-75
2022/06/16 09:00:38;;;;;;;4.15;2.70;;;24.20;59.10;;;;;;5074238;28;20130;-74
2022/06/16 09:03:07;;;;;;;;;;;24.70;59.70;;;;;;5091907;28;20043;-75
2022/06/16 09:05:43;;;;;;;4.03;1.70;;;24.40;61.70;;;;;;5091479;28;19977;-75
2022/06/16 09:08:42;;;;;;;3.97;1.50;;;24.90;62.00;;;;;;5086436;28;20089;-75
2022/06/16 09:11:43;;;;;;;5.38;2.30;;;25.00;60.00;;;;;;5081082;28;20110;-75
2022/06/16 09:17:28;;;;;;;5.47;1.95;;;24.70;58.60;;;;;;5073634;28;20074;-75
2022/06/16 09:20:21;;;;;;;5.80;2.30;;;24.50;59.00;;;;;;5054381;28;20037;-75
2022/06/16 09:23:25;;;;;;;5.67;2.07;;;24.50;59.50;;;;;;5071048;28;20032;-74
2022/06/16 09:26:16;;;;;;;5.68;2.97;;;24.50;56.70;;;;;;5070983;28;20801;-74
2022/06/16 09:28:59;;;;;;;2.88;1.83;;;24.60;56.40;;;;;;5070857;28;20071;-74
2022/06/16 09:31:44;;;;;;;4.90;2.55;;;24.60;58.10;;;;;;5070585;28;20043;-75
2022/06/16 09:34:20;;;;;;;3.45;2.30;;;24.40;60.20;;;;;;5070910;28;20071;-75
2022/06/16 09:36:53;;;;;;;6.70;2.42;;;24.00;60.50;;;;;;5054236;28;20037;-75
2022/06/16 09:39:27;;;;;;;5.53;2.13;;;24.60;62.20;;;;;;5070811;28;20047;-75
2022/06/16 09:45:01;;;;;;;3.92;3.03;;;24.60;60.00;;;;;;5070727;28;20045;-75
2022/06/16 09:47:32;;;;;;;6.45;2.88;;;24.60;59.10;;;;;;5070964;28;20532;-76
2022/06/16 09:50:06;;;;;;;4.00;2.55;;;24.40;59.30;;;;;;5071876;28;20032;-76
2022/06/16 09:52:53;;;;;;;4.35;2.17;;;24.80;59.70;;;;;;5072110;28;20121;-75
2022/06/16 09:55:29;;;;;;;4.25;2.20;;;24.30;58.90;;;;;;5070688;28;20119;-75
2022/06/16 09:58:09;;;;;;;3.90;2.75;;;24.40;59.80;;;;;;5070424;28;20044;-76
2022/06/16 10:00:34;;;;;;;5.25;2.40;;;24.10;57.90;;;;;;5070241;28;20055;-76
2022/06/16 10:03:22;;;;;;;5.40;2.88;;;24.30;60.80;;;;;;5071491;28;20039;-76
2022/06/16 10:06:10;;;;;;;4.43;2.08;;;24.20;58.40;;;;;;5098328;28;20047;-76
2022/06/16 10:09:00;;;;;;;4.40;2.40;;;24.60;60.00;;;;;;5097660;28;20079;-75
2022/06/16 10:11:54;;;;;;;6.85;2.50;;;24.50;59.50;;;;;;5100268;28;20047;-76
2022/06/16 10:14:47;;;;;;;6.22;3.20;;;24.40;59.50;;;;;;5071692;28;20051;-76
2022/06/16 10:17:15;;;;;;;3.53;2.75;;;24.40;60.20;;;;;;5070374;28;20090;-76
2022/06/16 10:19:44;;;;;;;5.82;3.10;;;23.90;59.30;;;;;;5070302;28;20494;-76
2022/06/16 10:22:13;;;;;;;6.70;3.08;;;24.00;57.00;;;;;;5069967;28;20403;-76
2022/06/16 10:24:45;;;;;;;5.93;2.60;;;24.10;58.50;;;;;;5070271;28;20075;-76
2022/06/16 10:27:13;;;;;;;3.60;2.47;;;23.90;60.70;;;;;;5072736;28;20418;-76
2022/06/16 10:29:54;;;;;;;3.67;2.17;;;23.90;58.60;;;;;;5074464;28;20051;-76
2022/06/16 10:32:42;;;;;;;7.85;3.00;;;23.90;61.00;;;;;;5074158;28;20040;-76
2022/06/16 10:35:18;;;;;;;6.18;2.80;;;23.80;56.40;;;;;;5074283;28;20089;-76
2022/06/16 10:37:48;;;;;;;5.07;3.22;;;23.80;60.10;;;;;;5074187;28;20047;-76
2022/06/16 10:40:16;;;;;;;4.28;2.25;;;23.90;59.60;;;;;;5057132;28;20038;-76
2022/06/16 10:42:50;;;;;;;4.38;2.33;;;23.90;60.00;;;;;;5073962;28;20045;-76
2022/06/16 10:45:28;;;;;;;6.35;2.95;;;23.70;59.60;;;;;;5074141;28;20047;-75
2022/06/16 10:48:01;;;;;;;3.60;2.45;;;23.70;59.70;;;;;;5073930;28;20040;-76
2022/06/16 10:50:32;;;;;;;6.65;3.28;;;23.60;59.90;;;;;;5073692;28;20045;-76
2022/06/16 10:53:03;;;;;;;9.20;3.08;;;23.70;60.50;;;;;;5075023;28;20033;-76
2022/06/16 10:55:37;;;;;;;5.22;2.42;;;23.40;59.60;;;;;;5073789;28;20103;-76
2022/06/16 10:58:14;;;;;;;4.53;3.00;;;23.40;58.30;;;;;;5073686;28;20057;-76
2022/06/16 11:00:40;;;;;;;6.90;2.90;;;23.30;61.20;;;;;;5073388;28;20040;-76
2022/06/16 11:03:17;;;;;;;6.60;3.00;;;23.10;58.80;;;;;;5073449;28;20032;-76
2022/06/16 11:05:59;;;;;;;5.30;3.03;;;23.00;57.90;;;;;;5073583;28;20512;-76
2022/06/16 11:08:47;;;;;;;7.78;3.10;;;23.10;60.30;;;;;;5073621;28;20098;-76
2022/06/16 11:11:17;;;;;;;6.38;3.20;;;22.70;56.80;;;;;;5060217;28;20094;-76
2022/06/16 11:13:52;;;;;;;4.85;3.30;;;22.90;56.50;;;;;;5056419;28;20525;-74
2022/06/16 11:16:30;;;;;;;6.30;3.17;;;22.90;55.80;;;;;;5056661;28;20032;-74
2022/06/16 11:18:59;;;;;;;6.20;3.30;;;22.90;55.90;;;;;;5073089;28;20391;-74
2022/06/16 11:21:31;;;;;;;3.88;2.60;;;22.80;56.60;;;;;;5073047;28;20371;-74
2022/06/16 11:24:02;;;;;;;5.38;3.83;;;23.00;57.00;;;;;;5074875;28;20359;-75
2022/06/16 11:26:42;;;;;;;3.65;2.90;;;23.00;55.30;;;;;;5082263;28;20039;-75
2022/06/16 11:29:11;;;;;;;5.82;2.97;;;23.10;56.80;;;;;;5083882;28;20418;-74
2022/06/16 11:31:45;;;;;;;5.22;2.75;;;23.00;57.10;;;;;;5083426;28;20043;-74
2022/06/16 11:34:24;;;;;;;4.95;3.35;;;22.50;57.10;;;;;;5092498;28;20390;-75
2022/06/16 11:37:07;;;;;;;5.82;3.03;;;22.60;57.10;;;;;;5093413;28;20147;-75
2022/06/16 11:39:52;;;;;;;4.65;2.95;;;22.60;56.80;;;;;;5092479;28;20055;-75
2022/06/16 11:42:40;;;;;;;5.25;3.47;;;22.90;59.70;;;;;;5093165;28;20068;-74
2022/06/16 11:45:11;;;;;;;5.25;2.88;;;22.90;62.40;;;;;;5093239;28;20040;-75
2022/06/16 11:47:55;;;;;;;5.47;2.88;;;23.10;61.50;;;;;;5093134;28;20131;-75
2022/06/16 11:50:26;;;;;;;5.03;2.53;;;23.10;61.80;;;;;;5092693;28;20089;-75
2022/06/16 11:53:02;;;;;;;5.80;2.28;;;23.20;60.90;;;;;;5093001;28;20135;-75
2022/06/16 11:56:01;;;;;;;3.38;2.42;;;23.30;60.30;;;;;;5092945;28;20036;-75
2022/06/16 11:59:01;;;;;;;6.03;2.72;;;23.10;57.10;;;;;;5094256;28;20047;-75
2022/06/16 12:01:43;;;;;;;6.90;2.58;;;22.90;59.40;;;;;;5093829;28;20626;-75
2022/06/16 12:04:18;;;;;;;4.47;2.72;;;23.00;59.70;;;;;;5094180;28;20116;-74
2022/06/16 12:06:57;;;;;;;5.00;2.80;;;23.10;57.40;;;;;;5092758;28;20060;-75
2022/06/16 12:09:41;;;;;;;4.43;2.55;;;23.20;59.80;;;;;;5093929;28;20122;-75
2022/06/16 12:12:17;;;;;;;4.18;2.60;;;23.20;61.70;;;;;;5092676;28;20056;-75
2022/06/16 12:15:08;;;;;;;6.65;2.88;;;23.20;60.80;;;;;;5095300;28;20056;-77
2022/06/16 12:17:49;;;;;;;3.85;2.50;;;23.30;60.20;;;;;;5083493;28;20075;-75
2022/06/16 12:20:29;;;;;;;4.07;3.03;;;23.10;57.70;;;;;;5055211;28;20037;-75
2022/06/16 12:23:22;;;;;;;5.97;2.50;;;23.00;56.70;;;;;;5055468;28;20029;-75
2022/06/16 12:25:57;;;;;;;4.57;2.85;;;22.70;56.50;;;;;;5073208;28;20037;-75
2022/06/16 12:28:39;;;;;;;3.35;2.28;;;22.80;58.40;;;;;;5073466;28;20037;-75
2022/06/16 12:31:16;;;;;;;6.75;2.53;;;22.80;56.20;;;;;;5071683;28;20086;-75
2022/06/16 12:34:01;;;;;;;6.13;2.22;;;22.80;56.60;;;;;;5071962;28;20131;-76
2022/06/16 12:36:32;;;;;;;3.47;2.22;;;23.10;59.60;;;;;;5071959;28;20052;-75
2022/06/16 12:39:24;;;;;;;4.80;2.38;;;23.00;60.00;;;;;;5071888;28;20526;-75
2022/06/16 12:41:54;;;;;;;6.28;2.35;;;23.00;59.90;;;;;;5072917;28;20398;-75
2022/06/16 12:44:45;;;;;;;3.08;2.60;;;23.10;57.50;;;;;;5073000;28;20043;-75
2022/06/16 12:47:49;;;;;;;5.03;2.40;;;23.00;56.70;;;;;;5071868;28;20040;-75
2022/06/16 12:50:35;;;;;;;3.75;2.70;;;23.30;57.70;;;;;;5026674;28;20066;-75
2022/06/16 12:53:15;;;;;;;5.63;2.53;;;23.40;59.00;;;;;;5071680;28;20048;-76
2022/06/16 12:55:44;;;;;;;5.53;2.22;;;23.30;56.00;;;;;;5071646;28;20041;-75
2022/06/16 12:58:16;;;;;;;4.93;2.08;;;23.30;55.10;;;;;;5082325;28;20528;-77
2022/06/16 13:00:49;;;;;;;6.23;2.37;;;23.40;56.50;;;;;;5066098;28;20028;-76
2022/06/16 13:03:34;;;;;;;4.80;1.98;;;23.40;56.20;;;;;;5088072;28;20123;-76
2022/06/16 13:06:00;;;;;;;4.22;2.40;;;23.30;57.70;;;;;;5073851;28;20037;-76
2022/06/16 13:08:29;;;;;;;4.07;2.58;;;23.40;55.30;;;;;;5057367;28;20046;-76
2022/06/16 13:10:58;;;;;;;8.18;2.42;;;23.50;53.90;;;;;;5082376;28;20036;-75
2022/06/16 13:13:29;;;;;;;4.05;2.45;;;23.40;54.10;;;;;;5079256;28;20068;-76
2022/06/16 13:15:59;;;;;;;3.75;2.13;;;23.50;54.20;;;;;;5076450;28;20036;-75
2022/06/16 13:18:30;;;;;;;5.68;2.63;;;23.50;55.60;;;;;;5070981;28;20079;-74
2022/06/16 13:21:02;;;;;;;4.78;2.20;;;23.70;57.10;;;;;;5070765;28;20498;-75
2022/06/16 13:23:39;;;;;;;5.40;3.03;;;23.80;56.20;;;;;;5070719;28;20037;-75
2022/06/16 13:26:22;;;;;;;4.78;2.67;;;23.90;56.20;;;;;;5070975;28;20036;-76
2022/06/16 13:28:52;;;;;;;;;;;23.70;52.70;;;;;;5071220;28;20094;-76
2022/06/16 13:31:29;;;;;;;4.20;2.28;;;23.40;53.90;;;;;;5070320;28;20365;-75
2022/06/16 13:33:54;;;;;;;6.88;2.50;;;23.50;54.60;;;;;;5071198;28;20398;-75
2022/06/16 13:36:23;;;;;;;6.13;2.95;;;23.50;54.30;;;;;;5070896;28;20043;-76
2022/06/16 13:38:51;;;;;;;5.38;2.30;;;23.40;54.00;;;;;;5079966;28;20119;-76
2022/06/16 13:41:45;;;;;;;4.40;2.17;;;23.50;54.30;;;;;;5081800;28;20047;-76
2022/06/16 13:44:17;;;;;;;3.97;2.30;;;23.40;54.20;;;;;;5081048;28;20036;-75